Time;durP1;ratioP1;P1;durP2;ratioP2;P2;SDS_P1;SDS_P2;PMS_P1;PMS_P2;Temp;Humidity;BMP_temperature;BMP_pressure;BME280_temperature;BME280_humidity;BME280_pressure;Samples;Min_cycle;Max_cycle;Signal;HPM_P1;HPM_P2
2023/06/29 00:00:08;;;;;;;19.40;9.95;;;;;;;29.05;54.48;100774.63;5055685;28;70379;-46
2023/06/29 00:02:41;;;;;;;16.67;10.90;;;;;;;29.13;64.79;100761.72;5061997;28;66139;-46
2023/06/29 00:05:12;;;;;;;17.98;8.48;;;;;;;29.25;75.04;100769.19;5061254;28;70216;-47
2023/06/29 00:07:43;;;;;;;17.45;9.13;;;;;;;29.32;75.01;100767.31;5058416;28;66244;-48
2023/06/29 00:10:14;;;;;;;36.55;16.80;;;;;;;29.38;76.01;100775.38;5054269;28;70801;-46
2023/06/29 00:12:45;;;;;;;43.72;24.95;;;;;;;29.41;76.74;100768.72;5059552;28;67026;-47
2023/06/29 00:15:16;;;;;;;43.03;23.70;;;;;;;29.50;78.23;100782.81;5056754;28;69849;-48
2023/06/29 00:17:47;;;;;;;30.25;17.35;;;;;;;29.54;77.95;100782.19;5060290;28;66217;-48
2023/06/29 00:20:19;;;;;;;32.88;15.93;;;;;;;29.55;77.68;100781.16;5057094;28;70129;-48
2023/06/29 00:22:50;;;;;;;20.40;14.88;;;;;;;29.54;77.85;100784.91;5058473;28;67303;-48
2023/06/29 00:25:21;;;;;;;33.70;17.38;;;;;;;29.62;78.13;100792.78;5052705;28;70222;-47
2023/06/29 00:27:52;;;;;;;42.25;25.40;;;;;;;29.69;79.83;100786.53;5057195;28;66247;-45
2023/06/29 00:30:23;;;;;;;32.45;17.95;;;;;;;29.68;79.53;100782.19;5060846;28;71147;-46
2023/06/29 00:32:54;;;;;;;25.95;16.30;;;;;;;29.73;80.24;100788.59;5041247;28;66404;-47
2023/06/29 00:35:25;;;;;;;19.77;15.18;;;;;;;29.76;80.16;100787.34;5058846;28;70189;-48
2023/06/29 00:37:59;;;;;;;34.30;14.88;;;;;;;29.82;79.04;100795.41;5059695;28;66359;-46
2023/06/29 00:40:31;;;;;;;21.00;14.88;;;;;;;29.86;78.04;100792.28;5043021;28;70172;-45
2023/06/29 00:43:02;;;;;;;29.67;14.68;;;;;;;29.84;77.55;100790.63;5059795;28;66286;-45
2023/06/29 00:45:34;;;;;;;19.00;13.93;;;;;;;29.82;77.01;100787.31;5058064;28;68034;-46
2023/06/29 00:48:07;;;;;;;23.80;13.60;;;;;;;29.57;77.16;100752.03;5053042;28;66629;-46
2023/06/29 00:50:39;;;;;;;13.95;12.23;;;;;;;29.62;76.44;100740.59;5056360;28;70412;-47
2023/06/29 00:53:11;;;;;;;14.15;11.85;;;;;;;29.96;76.98;100782.66;5057372;28;66142;-47
2023/06/29 00:55:42;;;;;;;19.50;11.77;;;;;;;30.03;76.44;100796.13;5054781;28;70402;-44
2023/06/29 00:58:14;;;;;;;12.18;9.73;;;;;;;30.08;72.70;100780.09;5056479;28;65878;-44
2023/06/29 01:00:45;;;;;;;9.77;8.75;;;;;;;30.01;72.61;100768.50;5059583;28;69608;-45
2023/06/29 01:03:16;;;;;;;9.27;8.48;;;;;;;30.14;72.13;100783.81;5042152;28;65601;-45
2023/06/29 01:05:50;;;;;;;8.40;7.88;;;;;;;29.74;71.72;100711.84;5059132;28;70486;-43
2023/06/29 01:08:28;;;;;;;8.30;7.60;;;;;;;30.23;71.05;100772.53;5059783;28;64350;-45
2023/06/29 01:11:00;;;;;;;8.77;7.97;;;;;;;30.25;71.31;100780.44;5057979;28;70489;-45
2023/06/29 01:13:32;;;;;;;8.50;7.78;;;;;;;30.30;71.04;100786.00;5060030;28;66106;-45
2023/06/29 01:16:05;;;;;;;7.47;6.90;;;;;;;30.25;70.34;100781.25;5042923;28;69623;-44
2023/06/29 01:18:37;;;;;;;7.97;7.28;;;;;;;30.34;70.78;100786.41;5062991;28;65832;-43
2023/06/29 01:21:12;;;;;;;8.15;7.45;;;;;;;30.17;70.21;100767.13;5060524;28;70862;-45
2023/06/29 01:23:45;;;;;;;6.60;6.18;;;;;;;30.40;70.13;100799.06;5058846;28;66867;-54
2023/06/29 01:26:16;;;;;;;7.35;6.65;;;;;;;30.37;69.64;100794.06;5059638;28;70014;-44
2023/06/29 01:28:52;;;;;;;9.48;6.40;;;;;;;30.40;69.48;100790.97;5058122;28;66530;-44
2023/06/29 01:31:26;;;;;;;6.55;6.05;;;;;;;30.44;69.27;100800.28;5047001;28;70678;-43
2023/06/29 01:33:58;;;;;;;7.05;6.50;;;;;;;30.47;69.09;100805.25;5059715;28;66407;-43
2023/06/29 01:36:42;;;;;;;6.78;6.13;;;;;;;30.05;69.61;100726.44;5056364;28;70539;-46
2023/06/29 01:39:20;;;;;;;6.45;5.85;;;;;;;30.46;69.00;100792.78;5059830;28;65765;-45
2023/06/29 01:41:53;;;;;;;6.28;5.85;;;;;;;30.49;69.09;100792.34;5055312;28;70274;-46
2023/06/29 01:44:24;;;;;;;5.97;5.57;;;;;;;30.59;68.66;100810.78;5060383;28;66645;-45
2023/06/29 01:46:57;;;;;;;6.55;5.63;;;;;;;30.60;68.91;100813.28;5058451;28;70366;-44
2023/06/29 01:49:28;;;;;;;7.22;5.65;;;;;;;30.57;68.77;100804.78;5038487;28;65969;-44
2023/06/29 01:51:59;;;;;;;5.70;5.30;;;;;;;30.63;68.90;100810.13;5056259;28;70861;-43
2023/06/29 01:54:30;;;;;;;5.73;5.33;;;;;;;30.65;68.32;100808.03;5059656;28;66731;-45
2023/06/29 01:57:05;;;;;;;5.77;5.17;;;;;;;30.18;68.60;100731.75;5057161;28;70165;-43
2023/06/29 01:59:37;;;;;;;5.72;5.30;;;;;;;30.71;68.19;100807.16;5038619;28;66352;-44
2023/06/29 02:02:08;;;;;;;6.63;5.50;;;;;;;30.71;68.46;100807.16;5056260;28;70269;-45
2023/06/29 02:04:39;;;;;;;5.57;5.23;;;;;;;30.76;68.17;100809.22;5059832;28;66127;-43
2023/06/29 02:07:11;;;;;;;6.00;5.53;;;;;;;30.70;68.02;100788.41;5040910;28;70261;-44
2023/06/29 02:09:43;;;;;;;5.37;4.90;;;;;;;30.79;67.88;100808.75;5058762;28;66283;-45
2023/06/29 02:12:14;;;;;;;5.65;5.25;;;;;;;30.69;68.29;100787.59;5040513;28;69402;-42
2023/06/29 02:14:45;;;;;;;5.68;5.28;;;;;;;30.87;67.78;100804.94;5059034;28;66321;-45
2023/06/29 02:17:17;;;;;;;;;;;;;;;30.59;69.16;100802.66;5046951;28;69341;-46
2023/06/29 02:19:48;;;;;;;5.15;4.75;;;;;;;30.89;68.00;100802.84;5060271;28;65219;-44
2023/06/29 02:22:20;;;;;;;4.97;4.68;;;;;;;30.91;67.79;100807.00;5040536;28;70028;-44
2023/06/29 02:24:52;;;;;;;4.40;4.05;;;;;;;30.96;67.38;100798.22;5058024;28;66179;-45
2023/06/29 02:27:23;;;;;;;4.63;4.30;;;;;;;30.99;67.20;100803.19;5057138;28;69892;-44
2023/06/29 02:29:54;;;;;;;5.22;4.72;;;;;;;31.02;67.14;100802.75;5040770;28;66974;-44
2023/06/29 02:32:25;;;;;;;4.77;4.47;;;;;;;31.03;67.36;100812.50;5057444;28;70729;-43
2023/06/29 02:34:56;;;;;;;4.45;4.15;;;;;;;31.06;67.40;100803.94;5061268;28;66162;-45
2023/06/29 02:37:28;;;;;;;4.63;4.32;;;;;;;31.08;67.43;100796.44;5039855;28;70120;-46
2023/06/29 02:39:59;;;;;;;4.68;4.38;;;;;;;31.10;67.42;100790.78;5049912;28;66019;-45
2023/06/29 02:42:32;;;;;;;4.75;4.40;;;;;;;31.15;66.89;100796.38;5058513;28;69203;-45
2023/06/29 02:45:05;;;;;;;4.80;4.40;;;;;;;31.14;66.91;100790.09;5022678;28;64605;-43
2023/06/29 02:47:37;;;;;;;4.90;4.20;;;;;;;31.19;66.67;100799.47;5029901;28;70033;-45
2023/06/29 02:50:08;;;;;;;5.63;4.95;;;;;;;31.23;66.83;100808.78;5037913;28;66173;-44
2023/06/29 02:52:50;;;;;;;4.90;4.55;;;;;;;31.26;66.46;100813.75;5038241;28;69939;-42
2023/06/29 02:55:24;;;;;;;5.13;4.22;;;;;;;31.31;66.83;100811.19;5038228;28;65371;-45
2023/06/29 02:57:56;;;;;;;5.10;4.00;;;;;;;31.34;66.62;100813.47;5054970;28;69227;-46
2023/06/29 03:00:27;;;;;;;4.13;3.80;;;;;;;31.35;66.59;100818.66;5043036;28;66006;-44
2023/06/29 03:02:58;;;;;;;4.23;3.90;;;;;;;31.26;66.29;100805.63;5057079;28;70804;-44
2023/06/29 03:05:30;;;;;;;4.65;4.35;;;;;;;31.36;66.28;100822.22;5042712;28;66044;-44
2023/06/29 03:08:05;;;;;;;4.72;4.32;;;;;;;31.44;66.30;100830.06;5054626;28;69114;-44
2023/06/29 03:10:36;;;;;;;4.20;3.95;;;;;;;31.48;66.31;100828.56;5055163;28;66427;-43
2023/06/29 03:13:07;;;;;;;4.25;3.95;;;;;;;31.38;66.15;100817.41;5038397;28;70421;-45
2023/06/29 03:15:39;;;;;;;4.35;4.05;;;;;;;31.43;66.22;100820.28;5052416;28;65953;-44
2023/06/29 03:18:10;;;;;;;3.88;3.58;;;;;;;31.50;66.33;100831.88;5057877;28;69479;-44
2023/06/29 03:20:41;;;;;;;4.00;3.70;;;;;;;31.38;66.32;100803.88;5056647;28;66006;-43
2023/06/29 03:23:13;;;;;;;3.72;3.42;;;;;;;31.58;66.10;100838.88;5058063;28;70091;-46
2023/06/29 03:25:45;;;;;;;3.27;3.03;;;;;;;31.59;66.04;100835.97;5050656;28;66738;-44
2023/06/29 03:28:16;;;;;;;3.97;3.67;;;;;;;31.60;66.13;100840.31;5050195;28;69971;-46
2023/06/29 03:30:47;;;;;;;4.10;3.80;;;;;;;31.58;66.12;100828.84;5054497;28;66476;-47
2023/06/29 03:33:19;;;;;;;3.92;3.67;;;;;;;31.57;65.99;100831.81;5052715;28;69966;-44
2023/06/29 03:35:50;;;;;;;6.97;3.90;;;;;;;31.60;65.88;100836.78;5053811;28;65172;-45
2023/06/29 03:38:22;;;;;;;4.00;3.60;;;;;;;31.56;65.43;100817.41;5055147;28;68881;-46
2023/06/29 03:40:54;;;;;;;3.27;3.07;;;;;;;31.68;65.61;100843.75;5046998;28;65493;-47
2023/06/29 03:43:25;;;;;;;3.43;3.23;;;;;;;31.68;65.43;100828.34;5054731;28;70324;-42
2023/06/29 03:45:59;;;;;;;3.53;3.30;;;;;;;31.68;65.34;100822.91;5068334;28;66221;-44
2023/06/29 03:48:30;;;;;;;3.97;3.67;;;;;;;31.73;65.17;100830.34;5058679;28;69879;-46
2023/06/29 03:51:01;;;;;;;3.53;3.22;;;;;;;31.71;65.42;100818.94;5058054;28;65650;-45
2023/06/29 03:53:33;;;;;;;3.77;3.47;;;;;;;31.69;65.46;100813.72;5055676;28;69785;-44
2023/06/29 03:56:04;;;;;;;3.40;3.20;;;;;;;31.75;65.38;100817.41;5057451;28;65958;-46
2023/06/29 03:58:36;;;;;;;3.30;3.03;;;;;;;31.78;64.81;100811.50;5051749;28;70329;-46
2023/06/29 04:01:07;;;;;;;3.58;2.88;;;;;;;31.79;64.96;100805.06;5055133;28;65883;-45
2023/06/29 04:03:38;;;;;;;5.20;3.23;;;;;;;31.81;64.99;100805.63;5057843;28;69958;-44
2023/06/29 04:06:10;;;;;;;3.50;3.30;;;;;;;31.84;65.08;100799.75;5057055;28;66406;-43
2023/06/29 04:08:41;;;;;;;5.33;2.83;;;;;;;31.85;65.02;100790.56;5056149;28;70644;-43
2023/06/29 04:11:12;;;;;;;3.17;2.90;;;;;;;31.88;64.63;100790.09;5054681;28;66899;-43
2023/06/29 04:13:44;;;;;;;3.53;2.60;;;;;;;31.90;64.74;100788.00;5063747;28;70374;-44
2023/06/29 04:16:15;;;;;;;3.65;3.45;;;;;;;31.72;64.52;100753.59;5061743;28;66476;-44
2023/06/29 04:18:47;;;;;;;4.32;3.40;;;;;;;31.94;64.65;100775.66;5059424;28;70297;-44
2023/06/29 04:21:18;;;;;;;5.38;3.10;;;;;;;31.94;64.59;100772.94;5058063;28;65647;-44
2023/06/29 04:23:50;;;;;;;2.85;2.65;;;;;;;31.95;64.71;100766.44;5056401;28;69779;-44
2023/06/29 04:26:22;;;;;;;2.58;2.38;;;;;;;31.98;64.83;100763.31;5062070;28;65927;-44
2023/06/29 04:29:06;;;;;;;3.33;3.10;;;;;;;31.41;64.39;100658.94;5057870;28;69657;-44
2023/06/29 04:31:37;;;;;;;3.13;2.83;;;;;;;32.02;64.38;100741.94;5047706;28;66300;-44
2023/06/29 04:34:09;;;;;;;3.43;3.13;;;;;;;31.98;64.61;100736.16;5058602;28;69983;-44
2023/06/29 04:36:40;;;;;;;3.55;2.90;;;;;;;32.04;64.79;100740.66;5051139;28;65269;-44
2023/06/29 04:39:13;;;;;;;3.27;3.07;;;;;;;32.04;64.23;100729.81;5062142;28;68960;-44
2023/06/29 04:41:46;;;;;;;3.97;2.67;;;;;;;32.08;64.38;100737.47;5060333;28;66238;-44
2023/06/29 04:44:21;;;;;;;3.22;2.60;;;;;;;32.13;64.23;100735.72;5056822;28;69627;-43
2023/06/29 04:46:52;;;;;;;3.10;2.90;;;;;;;31.90;64.04;100695.78;5060761;28;65846;-44
2023/06/29 04:49:27;;;;;;;3.80;2.50;;;;;;;32.15;64.39;100728.19;5044107;28;70326;-44
2023/06/29 04:52:01;;;;;;;2.83;2.63;;;;;;;32.15;64.10;100719.19;5054412;28;65478;-44
2023/06/29 04:54:33;;;;;;;2.90;2.70;;;;;;;32.22;64.17;100717.22;5053596;28;70062;-44
2023/06/29 04:57:04;;;;;;;4.47;2.83;;;;;;;32.17;64.07;100695.38;5060012;28;66367;-44
2023/06/29 04:59:36;;;;;;;2.90;2.60;;;;;;;32.24;64.12;100706.97;5058544;28;70456;-45
2023/06/29 05:02:07;;;;;;;2.30;2.10;;;;;;;32.27;64.08;100711.91;5053432;28;66310;-45
2023/06/29 05:04:39;;;;;;;2.55;2.35;;;;;;;32.30;63.90;100703.31;5046955;28;69194;-44
2023/06/29 05:07:10;;;;;;;2.75;2.55;;;;;;;32.27;64.05;100696.44;5041397;28;64887;-45
2023/06/29 05:09:41;;;;;;;3.13;2.92;;;;;;;32.32;63.72;100698.47;5058802;28;70547;-46
2023/06/29 05:12:14;;;;;;;2.53;2.33;;;;;;;32.34;64.05;100696.34;5059640;28;65931;-44
2023/06/29 05:14:45;;;;;;;2.63;2.42;;;;;;;32.38;63.73;100691.28;5069096;28;69755;-47
2023/06/29 05:17:17;;;;;;;2.72;2.53;;;;;;;32.28;63.64;100673.66;5058115;28;66526;-46
2023/06/29 05:19:49;;;;;;;2.67;2.47;;;;;;;32.39;63.65;100682.88;5055725;28;69485;-46
2023/06/29 05:22:20;;;;;;;2.42;2.22;;;;;;;32.40;63.91;100670.97;5054878;28;65337;-45
2023/06/29 05:24:52;;;;;;;2.72;2.53;;;;;;;32.43;63.66;100665.06;5055295;28;69823;-44
2023/06/29 05:27:23;;;;;;;2.42;2.22;;;;;;;32.43;63.57;100662.38;5058044;28;65921;-43
2023/06/29 05:29:54;;;;;;;2.60;2.40;;;;;;;32.49;63.43;100653.31;5059520;28;69310;-47
2023/06/29 05:32:26;;;;;;;2.65;2.45;;;;;;;32.51;63.54;100655.75;5059036;28;65331;-44
2023/06/29 05:34:58;;;;;;;2.60;2.40;;;;;;;32.50;63.10;100632.41;5055882;28;69932;-43
2023/06/29 05:37:30;;;;;;;2.50;2.30;;;;;;;32.42;63.49;100622.69;5056078;28;66169;-44
2023/06/29 05:40:02;;;;;;;2.53;2.33;;;;;;;32.49;63.46;100618.00;5053945;28;70306;-43
2023/06/29 05:42:33;;;;;;;2.77;2.57;;;;;;;32.60;63.49;100629.09;5056229;28;65289;-44
2023/06/29 05:45:05;;;;;;;2.65;2.45;;;;;;;32.62;63.20;100626.94;5056385;28;69267;-44
2023/06/29 05:47:36;;;;;;;2.63;2.42;;;;;;;32.61;63.18;100609.00;5057857;28;65509;-48
2023/06/29 05:50:08;;;;;;;2.22;2.00;;;;;;;32.58;62.74;100604.06;5056451;28;70131;-46
2023/06/29 05:52:40;;;;;;;2.45;2.25;;;;;;;32.71;63.26;100615.50;5061473;28;65915;-44
2023/06/29 05:55:11;;;;;;;3.25;2.05;;;;;;;32.73;63.08;100607.09;5057775;28;70010;-44
2023/06/29 05:57:43;;;;;;;4.35;2.53;;;;;;;32.68;63.22;100586.09;5058028;28;66296;-45
2023/06/29 06:00:18;;;;;;;1.98;1.77;;;;;;;32.79;62.93;100589.84;5057485;28;68142;-47
2023/06/29 06:02:49;;;;;;;;;;;;;;;32.51;63.34;100587.06;5059973;28;66375;-44
2023/06/29 06:05:20;;;;;;;2.28;2.08;;;;;;;32.61;63.14;100554.69;5058887;28;70291;-44
2023/06/29 06:07:51;;;;;;;3.05;2.60;;;;;;;32.71;63.15;100550.31;5059878;28;66790;-46
2023/06/29 06:10:23;;;;;;;1.95;1.85;;;;;;;32.75;63.05;100545.22;5058784;28;70332;-44
2023/06/29 06:12:54;;;;;;;2.00;1.90;;;;;;;32.82;62.72;100556.78;5057476;28;65628;-44
2023/06/29 06:15:25;;;;;;;2.67;2.13;;;;;;;32.86;62.69;100552.50;5042934;28;69541;-47
2023/06/29 06:17:56;;;;;;;3.58;1.88;;;;;;;32.88;62.63;100555.81;5056165;28;66257;-47
2023/06/29 06:20:28;;;;;;;3.85;2.00;;;;;;;32.83;62.64;100535.88;5059266;28;69157;-47
2023/06/29 06:22:59;;;;;;;1.90;1.80;;;;;;;32.91;62.48;100544.44;5055509;28;65542;-45
2023/06/29 06:25:30;;;;;;;3.10;2.17;;;;;;;32.92;62.33;100535.22;5058489;28;69549;-45
2023/06/29 06:28:02;;;;;;;2.17;1.83;;;;;;;32.89;62.39;100527.56;5057957;28;68811;-46
2023/06/29 06:30:33;;;;;;;;;;;;;;;32.65;63.03;100528.69;5055278;28;69597;-45
2023/06/29 06:33:04;;;;;;;2.42;2.22;;;;;;;32.94;62.24;100521.41;5055684;28;65599;-45
2023/06/29 06:35:35;;;;;;;1.98;1.88;;;;;;;32.96;62.29;100515.72;5057949;28;70346;-47
2023/06/29 06:38:07;;;;;;;4.60;1.98;;;;;;;32.92;62.22;100512.66;5055606;28;66749;-45
2023/06/29 06:40:38;;;;;;;1.77;1.52;;;;;;;32.99;62.26;100518.78;5057329;28;69791;-49
2023/06/29 06:43:09;;;;;;;1.60;1.50;;;;;;;32.89;62.36;100497.66;5060963;28;65773;-45
2023/06/29 06:45:40;;;;;;;2.17;1.75;;;;;;;33.03;61.97;100522.69;5054889;28;70561;-45
2023/06/29 06:48:12;;;;;;;1.80;1.50;;;;;;;32.99;61.99;100512.50;5066622;28;66755;-46
2023/06/29 06:50:43;;;;;;;;;;;;;;;32.74;62.52;100510.97;5056954;28;70573;-46
2023/06/29 06:53:14;;;;;;;1.92;1.73;;;;;;;32.95;62.19;100501.31;5051892;28;66872;-46
2023/06/29 06:55:46;;;;;;;3.35;2.00;;;;;;;33.04;62.07;100497.19;5063457;28;70498;-47
2023/06/29 06:58:17;;;;;;;2.53;1.88;;;;;;;32.91;62.05;100473.81;5059055;28;66438;-46
2023/06/29 07:00:49;;;;;;;2.35;1.77;;;;;;;33.06;61.72;100497.75;5055743;28;70207;-47
2023/06/29 07:03:20;;;;;;;1.70;1.60;;;;;;;32.97;61.78;100476.63;5062506;28;66363;-46
2023/06/29 07:05:53;;;;;;;2.22;1.65;;;;;;;32.98;62.01;100470.13;5057828;28;70133;-45
2023/06/29 07:08:24;;;;;;;1.60;1.50;;;;;;;32.94;61.84;100446.16;5057719;28;66126;-46
2023/06/29 07:10:56;;;;;;;1.90;1.48;;;;;;;33.09;61.86;100466.53;5056952;28;70038;-46
2023/06/29 07:13:27;;;;;;;2.00;1.70;;;;;;;32.99;61.82;100444.56;5057679;28;66463;-45
2023/06/29 07:15:58;;;;;;;3.30;1.58;;;;;;;33.10;61.83;100465.47;5058379;28;70206;-47
2023/06/29 07:18:31;;;;;;;2.30;1.90;;;;;;;33.13;61.97;100467.72;5058142;28;67795;-47
2023/06/29 07:21:02;;;;;;;1.45;1.35;;;;;;;32.76;61.57;100400.19;5053114;28;69290;-45
2023/06/29 07:23:36;;;;;;;3.03;1.50;;;;;;;33.13;61.85;100454.94;5057886;28;65777;-47
2023/06/29 07:26:11;;;;;;;1.35;1.25;;;;;;;33.16;61.66;100459.06;5059601;28;70312;-45
2023/06/29 07:28:42;;;;;;;;;;;;;;;32.85;62.22;100453.06;5053468;28;66356;-46
2023/06/29 07:31:13;;;;;;;1.50;1.40;;;;;;;33.08;61.75;100437.72;5058988;28;70667;-47
2023/06/29 07:33:44;;;;;;;4.32;1.85;;;;;;;33.12;61.84;100430.72;5058978;28;65769;-45
2023/06/29 07:36:16;;;;;;;1.98;1.70;;;;;;;33.13;61.51;100435.91;5037498;28;69717;-46
2023/06/29 07:38:48;;;;;;;1.65;1.55;;;;;;;33.11;61.74;100437.22;5063073;28;66006;-46
2023/06/29 07:41:20;;;;;;;1.73;1.58;;;;;;;33.17;61.55;100430.81;5057073;28;70352;-47
2023/06/29 07:43:56;;;;;;;1.50;1.40;;;;;;;33.17;61.60;100428.09;5062219;28;65799;-48
2023/06/29 07:46:28;;;;;;;1.52;1.42;;;;;;;33.19;61.50;100419.69;5059986;28;70095;-46
2023/06/29 07:48:59;;;;;;;1.20;1.10;;;;;;;32.99;61.52;100409.25;5064621;27;65111;-45
2023/06/29 07:51:33;;;;;;;2.83;1.50;;;;;;;33.17;61.61;100436.25;5062911;28;70736;-45
2023/06/29 07:54:06;;;;;;;2.28;1.58;;;;;;;33.13;61.68;100441.34;5063329;28;66681;-45
2023/06/29 07:56:37;;;;;;;1.95;1.83;;;;;;;33.04;61.40;100406.66;5063948;28;69650;-45
2023/06/29 07:59:11;;;;;;;1.90;1.50;;;;;;;33.19;61.63;100422.41;5052820;28;65262;-46
2023/06/29 08:01:43;;;;;;;2.00;1.80;;;;;;;33.17;61.47;100417.22;5061421;28;69098;-46
2023/06/29 08:04:14;;;;;;;3.53;1.83;;;;;;;33.10;61.79;100413.84;5061450;28;65300;-46
2023/06/29 08:07:06;;;;;;;3.53;1.52;;;;;;;33.14;61.91;100423.16;5059853;28;69273;-46
2023/06/29 08:09:39;;;;;;;1.70;1.60;;;;;;;33.13;61.86;100426.94;5053453;28;66440;-47
2023/06/29 08:12:11;;;;;;;2.17;1.98;;;;;;;33.11;61.87;100450.81;5061782;28;70174;-47
2023/06/29 08:14:43;;;;;;;1.85;1.58;;;;;;;32.93;62.20;100402.91;5060231;28;66630;-46
2023/06/29 08:17:14;;;;;;;1.75;1.55;;;;;;;33.04;62.19;100401.22;5059040;28;70131;-45
2023/06/29 08:19:46;;;;;;;1.53;1.40;;;;;;;33.00;62.82;100438.13;5056860;28;67245;-44
2023/06/29 08:22:17;;;;;;;1.92;1.80;;;;;;;32.98;62.80;100430.16;5064860;28;69440;-44
2023/06/29 08:24:48;;;;;;;2.17;1.73;;;;;;;33.02;63.60;100431.38;5062259;28;66143;-46
2023/06/29 08:27:22;;;;;;;2.63;1.80;;;;;;;32.98;63.90;100424.75;5063736;28;43568;-46
2023/06/29 08:29:55;;;;;;;3.33;2.07;;;;;;;33.03;63.90;100430.28;5062246;28;66331;-44
2023/06/29 08:32:26;;;;;;;3.67;1.83;;;;;;;33.05;63.94;100424.63;5060285;28;69891;-45
2023/06/29 08:34:58;;;;;;;3.80;2.30;;;;;;;33.03;64.03;100407.75;5060524;28;66150;-43
2023/06/29 08:37:29;;;;;;;2.50;1.95;;;;;;;32.92;63.85;100393.94;5049672;28;70286;-46
2023/06/29 08:40:00;;;;;;;2.07;1.87;;;;;;;32.99;64.00;100423.69;5065497;28;65513;-44
2023/06/29 08:42:31;;;;;;;;;;;;;;;32.69;65.19;100462.00;5060463;28;70583;-44
2023/06/29 08:45:02;;;;;;;3.25;2.25;;;;;;;32.93;64.57;100462.69;5058733;28;65634;-45
2023/06/29 08:47:36;;;;;;;4.18;2.08;;;;;;;32.93;64.62;100460.81;5060577;28;70166;-46
2023/06/29 08:50:10;;;;;;;1.70;1.60;;;;;;;32.33;64.07;100352.69;5058326;28;66164;-46
2023/06/29 08:52:43;;;;;;;2.58;2.30;;;;;;;32.88;64.30;100449.84;5057418;28;70397;-45
2023/06/29 08:55:15;;;;;;;2.15;1.92;;;;;;;32.90;64.57;100480.31;5064251;28;65604;-47
2023/06/29 08:57:45;;;;;;;;;;;;;;;32.54;65.56;100537.72;5068522;28;70728;-45
2023/06/29 09:00:17;;;;;;;1.80;1.63;;;;;;;32.75;64.66;100550.66;5061493;27;66057;-44
2023/06/29 09:02:51;;;;;;;1.98;1.80;;;;;;;32.75;65.09;100564.22;5060789;28;69991;-44
2023/06/29 09:05:23;;;;;;;2.58;1.85;;;;;;;32.78;65.46;100569.16;5060025;28;66225;-44
2023/06/29 09:07:54;;;;;;;3.50;2.67;;;;;;;32.70;66.11;100574.97;5058369;28;69477;-44
2023/06/29 09:10:25;;;;;;;2.88;2.00;;;;;;;32.71;66.28;100592.94;5060262;28;65481;-46
2023/06/29 09:12:57;;;;;;;3.25;2.40;;;;;;;32.70;66.39;100580.41;5058788;28;69073;-45
2023/06/29 09:15:29;;;;;;;2.60;2.10;;;;;;;32.69;66.19;100578.78;5039907;28;64753;-44
2023/06/29 09:18:00;;;;;;;;;;;;;;;32.34;68.23;100578.78;5059657;28;69480;-42
2023/06/29 09:20:35;;;;;;;3.10;2.85;;;;;;;32.48;66.98;100567.50;5062956;28;65798;-46
2023/06/29 09:23:07;;;;;;;2.83;2.58;;;;;;;32.65;66.39;100572.16;5058783;28;69941;-46
2023/06/29 09:25:39;;;;;;;3.03;2.42;;;;;;;32.63;66.25;100552.56;5076057;28;67142;-45
2023/06/29 09:28:13;;;;;;;2.33;1.70;;;;;;;32.62;66.14;100565.31;5055307;28;70358;-45
2023/06/29 09:30:44;;;;;;;2.38;2.00;;;;;;;32.58;65.84;100558.72;5057310;28;66389;-43
2023/06/29 09:33:18;;;;;;;2.15;1.52;;;;;;;32.58;66.15;100560.63;5060023;28;70414;-45
2023/06/29 09:35:53;;;;;;;2.30;1.85;;;;;;;32.27;66.22;100511.91;5040996;28;64773;-45
2023/06/29 09:38:25;;;;;;;1.42;1.30;;;;;;;32.36;65.98;100531.34;5054930;28;70316;-43
2023/06/29 09:40:56;;;;;;;2.95;1.63;;;;;;;32.49;66.06;100563.69;5059914;28;65950;-43
2023/06/29 09:43:29;;;;;;;2.22;2.03;;;;;;;32.45;66.17;100584.19;5057112;28;70504;-45
2023/06/29 09:46:10;;;;;;;1.60;1.50;;;;;;;32.44;66.57;100566.28;5061098;28;66775;-44
2023/06/29 09:48:48;;;;;;;2.45;1.77;;;;;;;32.39;66.51;100568.03;5057550;28;69545;-46
2023/06/29 09:51:23;;;;;;;2.60;1.60;;;;;;;32.37;66.15;100571.00;5032710;28;65514;-45
2023/06/29 09:53:55;;;;;;;3.25;1.95;;;;;;;32.34;66.18;100560.59;5056644;28;69690;-44
2023/06/29 09:56:26;;;;;;;1.95;1.75;;;;;;;32.30;65.98;100559.44;5057231;28;66331;-44
2023/06/29 09:59:01;;;;;;;1.95;1.70;;;;;;;32.28;66.27;100577.84;5057464;28;70348;-46
2023/06/29 10:01:32;;;;;;;1.95;1.63;;;;;;;32.27;66.27;100570.78;5056417;28;65355;-44
2023/06/29 10:04:04;;;;;;;2.10;1.90;;;;;;;32.23;66.32;100577.72;5040960;28;69986;-45
2023/06/29 10:06:43;;;;;;;2.15;1.40;;;;;;;32.23;66.44;100575.00;5056881;28;65396;-44
2023/06/29 10:09:21;;;;;;;2.22;2.03;;;;;;;32.22;66.67;100578.81;5055756;28;69342;-43
2023/06/29 10:11:56;;;;;;;1.60;1.50;;;;;;;31.71;66.38;100504.34;5055239;28;66197;-43
2023/06/29 10:14:28;;;;;;;3.40;2.00;;;;;;;32.17;66.32;100581.41;5054363;28;70236;-45
2023/06/29 10:17:01;;;;;;;2.08;1.85;;;;;;;32.03;66.23;100565.34;5055679;28;64062;-46
2023/06/29 10:19:35;;;;;;;2.72;2.25;;;;;;;32.11;66.25;100580.44;5055937;28;70625;-42
2023/06/29 10:22:11;;;;;;;1.80;1.50;;;;;;;32.16;66.09;100585.19;5036170;28;66253;-47
2023/06/29 10:24:55;;;;;;;4.07;3.17;;;;;;;31.27;69.33;100472.09;5050022;28;70091;-46
2023/06/29 10:27:30;;;;;;;4.32;3.17;;;;;;;31.78;71.20;100562.00;5056290;28;65541;-45
2023/06/29 10:30:06;;;;;;;5.38;3.75;;;;;;;31.78;72.66;100565.53;5055641;28;69922;-44
2023/06/29 10:32:39;;;;;;;4.43;3.92;;;;;;;30.60;73.42;100371.22;5054345;28;66189;-45
2023/06/29 10:35:14;;;;;;;5.45;4.30;;;;;;;31.68;74.64;100550.91;5053223;28;69858;-47
2023/06/29 10:37:50;;;;;;;4.68;4.28;;;;;;;30.54;74.78;100361.31;5052975;28;65746;-46
2023/06/29 10:40:27;;;;;;;4.63;4.20;;;;;;;31.60;75.55;100550.19;5055153;28;70648;-46
2023/06/29 10:42:58;;;;;;;5.55;4.93;;;;;;;31.57;76.07;100550.66;5055699;28;66378;-46
2023/06/29 10:45:33;;;;;;;13.25;5.22;;;;;;;31.51;76.51;100554.31;5053255;28;70113;-46
2023/06/29 10:48:05;;;;;;;8.02;4.82;;;;;;;31.56;76.83;100562.53;5054724;28;65553;-48
2023/06/29 10:50:42;;;;;;;6.22;5.60;;;;;;;31.03;77.41;100492.84;5053118;28;69337;-50
2023/06/29 10:53:15;;;;;;;7.10;6.15;;;;;;;30.92;77.72;100477.41;5052487;28;67321;-48
2023/06/29 10:55:56;;;;;;;10.93;5.53;;;;;;;31.49;78.38;100575.41;5056439;28;70253;-47
2023/06/29 10:58:33;;;;;;;7.10;6.28;;;;;;;31.48;78.41;100562.06;5054586;28;65447;-46
2023/06/29 11:01:04;;;;;;;15.63;6.43;;;;;;;31.39;79.09;100553.44;5043424;28;69848;-48
2023/06/29 11:03:36;;;;;;;7.82;6.88;;;;;;;31.49;79.77;100551.00;5057890;28;66078;-48
2023/06/29 11:06:07;;;;;;;5.57;5.18;;;;;;;31.42;76.83;100525.88;5057159;28;69842;-47
2023/06/29 11:08:48;;;;;;;5.05;4.68;;;;;;;30.44;76.51;100367.25;5054694;28;66159;-45
2023/06/29 11:11:21;;;;;;;7.90;5.05;;;;;;;31.63;75.80;100550.78;5056799;28;70074;-44
2023/06/29 11:13:56;;;;;;;5.28;4.78;;;;;;;31.63;75.60;100553.50;5055891;28;64609;-47
2023/06/29 11:16:28;;;;;;;5.53;4.93;;;;;;;31.68;74.92;100550.91;5053716;28;70325;-46
2023/06/29 11:19:02;;;;;;;4.93;4.63;;;;;;;31.66;74.68;100550.31;5055552;28;66128;-43
2023/06/29 11:21:34;;;;;;;8.00;5.10;;;;;;;31.71;74.69;100556.69;5054754;28;70322;-47
2023/06/29 11:24:05;;;;;;;4.90;4.40;;;;;;;31.70;74.77;100554.22;5057954;28;65797;-47
2023/06/29 11:26:37;;;;;;;5.50;5.10;;;;;;;31.50;74.35;100516.56;5042697;28;68891;-47
2023/06/29 11:29:08;;;;;;;5.75;5.15;;;;;;;31.58;74.50;100527.91;5058698;28;65710;-46
2023/06/29 11:31:40;;;;;;;5.93;5.53;;;;;;;31.72;75.02;100547.50;5044145;28;69182;-47
2023/06/29 11:34:13;;;;;;;5.75;5.20;;;;;;;31.14;74.61;100448.72;5042436;28;65777;-45
2023/06/29 11:36:46;;;;;;;5.85;5.45;;;;;;;31.66;74.53;100525.91;5059650;28;70250;-47
2023/06/29 11:39:37;;;;;;;5.90;5.50;;;;;;;31.74;74.86;100536.44;5059560;28;65722;-45
2023/06/29 11:42:10;;;;;;;6.55;6.15;;;;;;;31.73;74.48;100542.88;5058689;28;69177;-47
2023/06/29 11:44:41;;;;;;;8.02;7.30;;;;;;;31.75;74.75;100546.19;5055391;28;66559;-48
2023/06/29 11:47:16;;;;;;;7.88;7.13;;;;;;;31.59;75.94;100516.00;5056744;28;69758;-47
2023/06/29 11:50:04;;;;;;;8.88;8.13;;;;;;;31.09;76.90;100434.22;5058720;28;65493;-46